sensor_id;sensor_type;location;lat;lon;timestamp;temperature;humidity
10386;DHT22;34307;51.332;12.334;2023-07-31T00:00:16;16.00;99.90
10386;DHT22;34307;51.332;12.334;2023-07-31T00:02:43;16.00;99.90
10386;DHT22;34307;51.332;12.334;2023-07-31T00:05:12;16.00;99.90
10386;DHT22;34307;51.332;12.334;2023-07-31T00:07:40;16.00;99.90
10386;DHT22;34307;51.332;12.334;2023-07-31T00:10:09;15.90;99.90
10386;DHT22;34307;51.332;12.334;2023-07-31T00:12:41;15.90;99.90
10386;DHT22;34307;51.332;12.334;2023-07-31T00:15:10;15.90;99.90
10386;DHT22;34307;51.332;12.334;2023-07-31T00:17:40;16.00;99.90
10386;DHT22;34307;51.332;12.334;2023-07-31T00:20:11;16.00;99.90
10386;DHT22;34307;51.332;12.334;2023-07-31T00:22:39;16.00;99.90
10386;DHT22;34307;51.332;12.334;2023-07-31T00:25:07;16.00;99.90
10386;DHT22;34307;51.332;12.334;2023-07-31T00:27:35;16.00;99.90
10386;DHT22;34307;51.332;12.334;2023-07-31T00:30:07;16.00;99.90
10386;DHT22;34307;51.332;12.334;2023-07-31T00:32:36;16.00;99.90
10386;DHT22;34307;51.332;12.334;2023-07-31T00:35:05;16.10;99.90
10386;DHT22;34307;51.332;12.334;2023-07-31T00:37:33;16.10;99.90
10386;DHT22;34307;51.332;12.334;2023-07-31T00:40:01;16.00;99.90
10386;DHT22;34307;51.332;12.334;2023-07-31T00:42:31;16.10;99.90
10386;DHT22;34307;51.332;12.334;2023-07-31T00:45:00;16.10;99.90
10386;DHT22;34307;51.332;12.334;2023-07-31T00:47:31;16.10;99.90
10386;DHT22;34307;51.332;12.334;2023-07-31T00:49:59;16.10;99.90
10386;DHT22;34307;51.332;12.334;2023-07-31T00:52:27;16.10;99.90
10386;DHT22;34307;51.332;12.334;2023-07-31T00:54:55;16.20;99.90
10386;DHT22;34307;51.332;12.334;2023-07-31T00:57:24;16.30;99.90
10386;DHT22;34307;51.332;12.334;2023-07-31T00:59:52;16.30;99.90
10386;DHT22;34307;51.332;12.334;2023-07-31T01:02:21;16.40;99.90
10386;DHT22;34307;51.332;12.334;2023-07-31T01:04:51;16.40;99.90
10386;DHT22;34307;51.332;12.334;2023-07-31T01:07:25;16.40;99.90
10386;DHT22;34307;51.332;12.334;2023-07-31T01:10:00;16.40;99.90
10386;DHT22;34307;51.332;12.334;2023-07-31T01:12:31;16.40;99.90
10386;DHT22;34307;51.332;12.334;2023-07-31T01:15:05;16.40;99.90
10386;DHT22;34307;51.332;12.334;2023-07-31T01:17:37;16.40;99.90
10386;DHT22;34307;51.332;12.334;2023-07-31T01:20:11;16.30;99.90
10386;DHT22;34307;51.332;12.334;2023-07-31T01:22:54;16.30;99.90
10386;DHT22;34307;51.332;12.334;2023-07-31T01:25:48;16.30;99.90
10386;DHT22;34307;51.332;12.334;2023-07-31T01:28:20;16.20;99.90
10386;DHT22;34307;51.332;12.334;2023-07-31T01:30:48;16.20;99.90
10386;DHT22;34307;51.332;12.334;2023-07-31T01:33:17;16.20;99.90
10386;DHT22;34307;51.332;12.334;2023-07-31T01:35:47;16.20;99.90
10386;DHT22;34307;51.332;12.334;2023-07-31T01:38:20;16.20;99.90
10386;DHT22;34307;51.332;12.334;2023-07-31T01:40:53;16.20;99.90
10386;DHT22;34307;51.332;12.334;2023-07-31T01:43:21;16.20;99.90
10386;DHT22;34307;51.332;12.334;2023-07-31T01:45:50;16.20;99.90
10386;DHT22;34307;51.332;12.334;2023-07-31T01:48:19;16.20;99.90
10386;DHT22;34307;51.332;12.334;2023-07-31T01:50:49;16.10;99.90
10386;DHT22;34307;51.332;12.334;2023-07-31T01:53:17;16.00;99.90
10386;DHT22;34307;51.332;12.334;2023-07-31T01:55:45;15.90;99.90
10386;DHT22;34307;51.332;12.334;2023-07-31T01:58:14;16.00;99.90
10386;DHT22;34307;51.332;12.334;2023-07-31T02:00:45;15.90;99.90
10386;DHT22;34307;51.332;12.334;2023-07-31T02:03:14;15.90;99.90
10386;DHT22;34307;51.332;12.334;2023-07-31T02:05:44;15.90;99.90
10386;DHT22;34307;51.332;12.334;2023-07-31T02:08:12;16.00;99.90
10386;DHT22;34307;51.332;12.334;2023-07-31T02:10:41;16.00;99.90
10386;DHT22;34307;51.332;12.334;2023-07-31T02:13:09;16.00;99.90
10386;DHT22;34307;51.332;12.334;2023-07-31T02:15:40;15.90;99.90
10386;DHT22;34307;51.332;12.334;2023-07-31T02:18:08;15.90;99.90
10386;DHT22;34307;51.332;12.334;2023-07-31T02:20:36;15.90;99.90
10386;DHT22;34307;51.332;12.334;2023-07-31T02:23:04;15.90;99.90
10386;DHT22;34307;51.332;12.334;2023-07-31T02:25:34;15.90;99.90
10386;DHT22;34307;51.332;12.334;2023-07-31T02:28:04;15.90;99.90
10386;DHT22;34307;51.332;12.334;2023-07-31T02:30:33;15.90;99.90
10386;DHT22;34307;51.332;12.334;2023-07-31T02:33:03;15.90;99.90
10386;DHT22;34307;51.332;12.334;2023-07-31T02:35:32;15.80;99.90
10386;DHT22;34307;51.332;12.334;2023-07-31T02:38:00;15.90;99.90
10386;DHT22;34307;51.332;12.334;2023-07-31T02:40:28;15.80;99.90
10386;DHT22;34307;51.332;12.334;2023-07-31T02:42:56;15.80;99.90
10386;DHT22;34307;51.332;12.334;2023-07-31T02:45:26;15.80;99.90
10386;DHT22;34307;51.332;12.334;2023-07-31T02:47:54;15.90;99.90
10386;DHT22;34307;51.332;12.334;2023-07-31T02:50:24;15.80;99.90
10386;DHT22;34307;51.332;12.334;2023-07-31T02:52:51;15.80;99.90
10386;DHT22;34307;51.332;12.334;2023-07-31T02:55:19;15.80;99.90
10386;DHT22;34307;51.332;12.334;2023-07-31T02:57:48;15.80;99.90
10386;DHT22;34307;51.332;12.334;2023-07-31T03:00:16;15.80;99.90
10386;DHT22;34307;51.332;12.334;2023-07-31T03:02:44;15.80;99.90
10386;DHT22;34307;51.332;12.334;2023-07-31T03:05:16;15.80;99.90
10386;DHT22;34307;51.332;12.334;2023-07-31T03:07:45;15.80;99.90
10386;DHT22;34307;51.332;12.334;2023-07-31T03:10:13;15.80;99.90
10386;DHT22;34307;51.332;12.334;2023-07-31T03:12:42;15.80;99.90
10386;DHT22;34307;51.332;12.334;2023-07-31T03:15:10;15.80;99.90
10386;DHT22;34307;51.332;12.334;2023-07-31T03:17:41;15.80;99.90
10386;DHT22;34307;51.332;12.334;2023-07-31T03:20:11;15.90;99.90
10386;DHT22;34307;51.332;12.334;2023-07-31T03:22:39;15.80;99.90
10386;DHT22;34307;51.332;12.334;2023-07-31T03:25:09;15.80;99.90
10386;DHT22;34307;51.332;12.334;2023-07-31T03:27:40;15.90;99.90
10386;DHT22;34307;51.332;12.334;2023-07-31T03:30:09;15.90;99.90
10386;DHT22;34307;51.332;12.334;2023-07-31T03:32:37;15.90;99.90
10386;DHT22;34307;51.332;12.334;2023-07-31T03:35:06;15.80;99.90
10386;DHT22;34307;51.332;12.334;2023-07-31T03:37:35;15.90;99.90
10386;DHT22;34307;51.332;12.334;2023-07-31T03:40:04;15.80;99.90
10386;DHT22;34307;51.332;12.334;2023-07-31T03:42:34;15.90;99.90
10386;DHT22;34307;51.332;12.334;2023-07-31T03:45:03;15.80;99.90
10386;DHT22;34307;51.332;12.334;2023-07-31T03:47:31;15.80;99.90
10386;DHT22;34307;51.332;12.334;2023-07-31T03:49:59;15.70;99.90
10386;DHT22;34307;51.332;12.334;2023-07-31T03:52:28;15.70;99.90
10386;DHT22;34307;51.332;12.334;2023-07-31T03:54:56;15.70;99.90
10386;DHT22;34307;51.332;12.334;2023-07-31T03:57:24;15.70;99.90
10386;DHT22;34307;51.332;12.334;2023-07-31T03:59:54;15.70;99.90
10386;DHT22;34307;51.332;12.334;2023-07-31T04:02:22;15.70;99.90
10386;DHT22;34307;51.332;12.334;2023-07-31T04:04:50;15.70;99.90
10386;DHT22;34307;51.332;12.334;2023-07-31T04:07:18;15.70;99.90
10386;DHT22;34307;51.332;12.334;2023-07-31T04:09:46;15.70;99.90
10386;DHT22;34307;51.332;12.334;2023-07-31T04:12:15;15.70;99.90
10386;DHT22;34307;51.332;12.334;2023-07-31T04:14:43;15.80;99.90
10386;DHT22;34307;51.332;12.334;2023-07-31T04:17:14;15.70;99.90
10386;DHT22;34307;51.332;12.334;2023-07-31T04:19:43;15.70;99.90
10386;DHT22;34307;51.332;12.334;2023-07-31T04:22:11;15.70;99.90
10386;DHT22;34307;51.332;12.334;2023-07-31T04:24:39;15.70;99.90
10386;DHT22;34307;51.332;12.334;2023-07-31T04:27:07;15.70;99.90
10386;DHT22;34307;51.332;12.334;2023-07-31T04:29:35;15.80;99.90
10386;DHT22;34307;51.332;12.334;2023-07-31T04:32:04;15.70;99.90
10386;DHT22;34307;51.332;12.334;2023-07-31T04:34:33;15.70;99.90
10386;DHT22;34307;51.332;12.334;2023-07-31T04:37:02;15.80;99.90
10386;DHT22;34307;51.332;12.334;2023-07-31T04:39:31;15.80;99.90
10386;DHT22;34307;51.332;12.334;2023-07-31T04:41:59;15.80;99.90
10386;DHT22;34307;51.332;12.334;2023-07-31T04:44:29;15.80;99.90
10386;DHT22;34307;51.332;12.334;2023-07-31T04:46:57;15.80;99.90
10386;DHT22;34307;51.332;12.334;2023-07-31T04:49:26;15.70;99.90
10386;DHT22;34307;51.332;12.334;2023-07-31T04:51:56;15.70;99.90
10386;DHT22;34307;51.332;12.334;2023-07-31T04:54:24;15.50;99.90
10386;DHT22;34307;51.332;12.334;2023-07-31T04:56:53;15.40;99.90
10386;DHT22;34307;51.332;12.334;2023-07-31T04:59:21;15.40;99.90
10386;DHT22;34307;51.332;12.334;2023-07-31T05:01:49;15.40;99.90
10386;DHT22;34307;51.332;12.334;2023-07-31T05:04:18;15.30;99.90
10386;DHT22;34307;51.332;12.334;2023-07-31T05:06:48;15.30;99.90
10386;DHT22;34307;51.332;12.334;2023-07-31T05:09:18;15.30;99.90
10386;DHT22;34307;51.332;12.334;2023-07-31T05:11:47;15.20;99.90
10386;DHT22;34307;51.332;12.334;2023-07-31T05:14:14;15.20;99.90
10386;DHT22;34307;51.332;12.334;2023-07-31T05:16:43;15.20;99.90
10386;DHT22;34307;51.332;12.334;2023-07-31T05:19:13;15.10;99.90
10386;DHT22;34307;51.332;12.334;2023-07-31T05:21:41;15.10;99.90
10386;DHT22;34307;51.332;12.334;2023-07-31T05:24:10;15.10;99.90
10386;DHT22;34307;51.332;12.334;2023-07-31T05:26:39;15.10;99.90
10386;DHT22;34307;51.332;12.334;2023-07-31T05:29:09;15.10;99.90
10386;DHT22;34307;51.332;12.334;2023-07-31T05:31:38;15.10;99.90
10386;DHT22;34307;51.332;12.334;2023-07-31T05:34:07;15.10;99.90
10386;DHT22;34307;51.332;12.334;2023-07-31T05:36:36;15.20;99.90
10386;DHT22;34307;51.332;12.334;2023-07-31T05:39:04;15.20;99.90
10386;DHT22;34307;51.332;12.334;2023-07-31T05:41:35;15.20;99.90
10386;DHT22;34307;51.332;12.334;2023-07-31T05:44:13;15.20;99.90
10386;DHT22;34307;51.332;12.334;2023-07-31T05:46:44;15.20;99.90
10386;DHT22;34307;51.332;12.334;2023-07-31T05:49:11;15.30;99.90
10386;DHT22;34307;51.332;12.334;2023-07-31T05:51:40;15.40;99.90
10386;DHT22;34307;51.332;12.334;2023-07-31T05:54:10;15.40;99.90
10386;DHT22;34307;51.332;12.334;2023-07-31T05:56:38;15.40;99.90
10386;DHT22;34307;51.332;12.334;2023-07-31T05:59:11;15.40;99.90
10386;DHT22;34307;51.332;12.334;2023-07-31T06:01:45;15.40;99.90
10386;DHT22;34307;51.332;12.334;2023-07-31T06:04:16;15.40;99.90
10386;DHT22;34307;51.332;12.334;2023-07-31T06:06:47;15.40;99.90
10386;DHT22;34307;51.332;12.334;2023-07-31T06:09:14;15.40;99.90
10386;DHT22;34307;51.332;12.334;2023-07-31T06:11:43;15.50;99.90
10386;DHT22;34307;51.332;12.334;2023-07-31T06:14:13;15.50;99.90
10386;DHT22;34307;51.332;12.334;2023-07-31T06:16:41;15.60;99.90
10386;DHT22;34307;51.332;12.334;2023-07-31T06:19:10;15.60;99.90
10386;DHT22;34307;51.332;12.334;2023-07-31T06:21:40;15.70;99.90
10386;DHT22;34307;51.332;12.334;2023-07-31T06:24:10;15.80;99.90
10386;DHT22;34307;51.332;12.334;2023-07-31T06:26:39;15.90;99.90
10386;DHT22;34307;51.332;12.334;2023-07-31T06:29:08;16.00;99.90
10386;DHT22;34307;51.332;12.334;2023-07-31T06:31:40;16.00;99.90
10386;DHT22;34307;51.332;12.334;2023-07-31T06:34:08;16.20;99.90
10386;DHT22;34307;51.332;12.334;2023-07-31T06:36:36;16.20;99.90
10386;DHT22;34307;51.332;12.334;2023-07-31T06:39:05;16.20;99.90
10386;DHT22;34307;51.332;12.334;2023-07-31T06:41:33;16.30;99.90
10386;DHT22;34307;51.332;12.334;2023-07-31T06:44:01;16.40;99.90
10386;DHT22;34307;51.332;12.334;2023-07-31T06:46:30;16.40;99.90
10386;DHT22;34307;51.332;12.334;2023-07-31T06:48:59;16.40;99.90
10386;DHT22;34307;51.332;12.334;2023-07-31T06:51:28;16.50;99.90
10386;DHT22;34307;51.332;12.334;2023-07-31T06:53:58;16.50;99.90
10386;DHT22;34307;51.332;12.334;2023-07-31T06:56:26;16.50;99.90
10386;DHT22;34307;51.332;12.334;2023-07-31T06:58:55;16.60;99.90
10386;DHT22;34307;51.332;12.334;2023-07-31T07:01:23;16.70;99.90
10386;DHT22;34307;51.332;12.334;2023-07-31T07:03:55;16.70;99.90
10386;DHT22;34307;51.332;12.334;2023-07-31T07:06:25;16.70;99.90
10386;DHT22;34307;51.332;12.334;2023-07-31T07:08:53;16.70;99.90
10386;DHT22;34307;51.332;12.334;2023-07-31T07:11:21;16.70;99.90
10386;DHT22;34307;51.332;12.334;2023-07-31T07:13:51;16.80;99.90
10386;DHT22;34307;51.332;12.334;2023-07-31T07:16:22;16.90;99.90
10386;DHT22;34307;51.332;12.334;2023-07-31T07:18:51;17.00;99.90
10386;DHT22;34307;51.332;12.334;2023-07-31T07:21:32;17.00;99.90
10386;DHT22;34307;51.332;12.334;2023-07-31T07:24:00;17.00;99.90
10386;DHT22;34307;51.332;12.334;2023-07-31T07:26:28;17.10;99.90
10386;DHT22;34307;51.332;12.334;2023-07-31T07:28:58;17.10;99.90
10386;DHT22;34307;51.332;12.334;2023-07-31T07:31:28;17.10;99.90
10386;DHT22;34307;51.332;12.334;2023-07-31T07:33:56;17.20;99.90
10386;DHT22;34307;51.332;12.334;2023-07-31T07:36:24;17.30;99.90
10386;DHT22;34307;51.332;12.334;2023-07-31T07:38:53;17.30;99.90
10386;DHT22;34307;51.332;12.334;2023-07-31T07:41:22;17.30;99.90
10386;DHT22;34307;51.332;12.334;2023-07-31T07:43:50;17.30;99.90
10386;DHT22;34307;51.332;12.334;2023-07-31T07:46:18;17.40;99.90
10386;DHT22;34307;51.332;12.334;2023-07-31T07:48:51;17.50;99.90
10386;DHT22;34307;51.332;12.334;2023-07-31T07:51:19;17.60;99.90
10386;DHT22;34307;51.332;12.334;2023-07-31T07:53:47;17.70;99.90
10386;DHT22;34307;51.332;12.334;2023-07-31T07:56:17;17.70;99.90
10386;DHT22;34307;51.332;12.334;2023-07-31T07:58:45;17.80;99.90
10386;DHT22;34307;51.332;12.334;2023-07-31T08:01:16;17.80;99.90
10386;DHT22;34307;51.332;12.334;2023-07-31T08:03:44;17.80;99.90
10386;DHT22;34307;51.332;12.334;2023-07-31T08:06:15;17.80;99.90
10386;DHT22;34307;51.332;12.334;2023-07-31T08:08:43;17.80;99.90
10386;DHT22;34307;51.332;12.334;2023-07-31T08:11:12;17.90;99.90
10386;DHT22;34307;51.332;12.334;2023-07-31T08:13:44;17.90;99.90
10386;DHT22;34307;51.332;12.334;2023-07-31T08:16:12;18.00;99.90
10386;DHT22;34307;51.332;12.334;2023-07-31T08:18:44;18.20;99.90
10386;DHT22;34307;51.332;12.334;2023-07-31T08:21:14;18.20;99.90
10386;DHT22;34307;51.332;12.334;2023-07-31T08:23:42;18.20;99.90
10386;DHT22;34307;51.332;12.334;2023-07-31T08:26:15;18.30;99.90
10386;DHT22;34307;51.332;12.334;2023-07-31T08:28:45;18.40;99.90
10386;DHT22;34307;51.332;12.334;2023-07-31T08:31:14;18.60;99.90
10386;DHT22;34307;51.332;12.334;2023-07-31T08:33:42;18.60;99.90
10386;DHT22;34307;51.332;12.334;2023-07-31T08:36:10;18.80;99.90
10386;DHT22;34307;51.332;12.334;2023-07-31T08:38:38;18.90;99.90
10386;DHT22;34307;51.332;12.334;2023-07-31T08:41:06;19.00;99.90
10386;DHT22;34307;51.332;12.334;2023-07-31T08:43:35;19.30;99.90
10386;DHT22;34307;51.332;12.334;2023-07-31T08:46:06;19.40;99.90
10386;DHT22;34307;51.332;12.334;2023-07-31T08:48:35;19.50;99.90
10386;DHT22;34307;51.332;12.334;2023-07-31T08:51:05;19.50;99.90
10386;DHT22;34307;51.332;12.334;2023-07-31T08:53:38;19.50;99.90
10386;DHT22;34307;51.332;12.334;2023-07-31T08:56:12;19.40;99.90
10386;DHT22;34307;51.332;12.334;2023-07-31T08:58:46;19.40;99.90
10386;DHT22;34307;51.332;12.334;2023-07-31T09:01:19;19.40;99.90
10386;DHT22;34307;51.332;12.334;2023-07-31T09:03:49;19.30;99.90
10386;DHT22;34307;51.332;12.334;2023-07-31T09:06:18;19.40;99.90
10386;DHT22;34307;51.332;12.334;2023-07-31T09:08:49;19.50;99.90
10386;DHT22;34307;51.332;12.334;2023-07-31T09:11:18;19.40;99.90
10386;DHT22;34307;51.332;12.334;2023-07-31T09:13:49;19.40;99.90
10386;DHT22;34307;51.332;12.334;2023-07-31T09:16:29;19.40;99.90
10386;DHT22;34307;51.332;12.334;2023-07-31T09:18:59;19.10;99.90
10386;DHT22;34307;51.332;12.334;2023-07-31T09:21:28;19.20;99.90
10386;DHT22;34307;51.332;12.334;2023-07-31T09:23:57;19.20;99.90
10386;DHT22;34307;51.332;12.334;2023-07-31T09:26:31;19.20;99.90
10386;DHT22;34307;51.332;12.334;2023-07-31T09:29:03;19.20;99.90
10386;DHT22;34307;51.332;12.334;2023-07-31T09:31:39;19.10;99.90
10386;DHT22;34307;51.332;12.334;2023-07-31T09:34:09;19.10;99.90
10386;DHT22;34307;51.332;12.334;2023-07-31T09:36:41;19.00;99.90
10386;DHT22;34307;51.332;12.334;2023-07-31T09:39:10;19.00;99.90
10386;DHT22;34307;51.332;12.334;2023-07-31T09:41:43;19.00;99.90
10386;DHT22;34307;51.332;12.334;2023-07-31T09:44:19;19.00;99.90
10386;DHT22;34307;51.332;12.334;2023-07-31T09:46:48;18.90;99.90
10386;DHT22;34307;51.332;12.334;2023-07-31T09:49:16;19.00;99.90
10386;DHT22;34307;51.332;12.334;2023-07-31T09:51:45;19.10;99.90
10386;DHT22;34307;51.332;12.334;2023-07-31T09:54:15;19.20;99.90
10386;DHT22;34307;51.332;12.334;2023-07-31T09:56:48;19.40;99.90
10386;DHT22;34307;51.332;12.334;2023-07-31T09:59:18;19.50;99.90
10386;DHT22;34307;51.332;12.334;2023-07-31T10:01:52;19.60;99.90
10386;DHT22;34307;51.332;12.334;2023-07-31T10:04:27;19.40;99.90
10386;DHT22;34307;51.332;12.334;2023-07-31T10:06:55;19.20;99.90
10386;DHT22;34307;51.332;12.334;2023-07-31T10:09:25;19.10;99.90
10386;DHT22;34307;51.332;12.334;2023-07-31T10:12:00;19.40;99.90
10386;DHT22;34307;51.332;12.334;2023-07-31T10:14:28;19.60;99.90
10386;DHT22;34307;51.332;12.334;2023-07-31T10:16:59;19.90;99.90
10386;DHT22;34307;51.332;12.334;2023-07-31T10:19:27;20.20;99.90
10386;DHT22;34307;51.332;12.334;2023-07-31T10:22:00;20.40;99.90
10386;DHT22;34307;51.332;12.334;2023-07-31T10:24:29;20.50;99.90
10386;DHT22;34307;51.332;12.334;2023-07-31T10:26:58;20.50;99.90
10386;DHT22;34307;51.332;12.334;2023-07-31T10:29:28;20.80;99.90
10386;DHT22;34307;51.332;12.334;2023-07-31T10:31:58;20.70;99.90
10386;DHT22;34307;51.332;12.334;2023-07-31T10:34:29;20.70;99.90
10386;DHT22;34307;51.332;12.334;2023-07-31T10:37:19;20.50;99.90
10386;DHT22;34307;51.332;12.334;2023-07-31T10:39:59;20.30;99.90
10386;DHT22;34307;51.332;12.334;2023-07-31T10:42:29;20.40;99.90
10386;DHT22;34307;51.332;12.334;2023-07-31T10:44:59;20.20;99.90
10386;DHT22;34307;51.332;12.334;2023-07-31T10:51:12;20.30;99.90
10386;DHT22;34307;51.332;12.334;2023-07-31T10:53:43;20.40;99.90
10386;DHT22;34307;51.332;12.334;2023-07-31T10:56:15;20.60;99.90
10386;DHT22;34307;51.332;12.334;2023-07-31T10:58:46;21.10;99.90
10386;DHT22;34307;51.332;12.334;2023-07-31T11:01:51;21.50;99.90
10386;DHT22;34307;51.332;12.334;2023-07-31T11:04:23;21.50;99.90
10386;DHT22;34307;51.332;12.334;2023-07-31T11:07:00;21.60;99.90
10386;DHT22;34307;51.332;12.334;2023-07-31T11:09:30;21.40;99.50
10386;DHT22;34307;51.332;12.334;2023-07-31T11:11:59;21.40;99.90
10386;DHT22;34307;51.332;12.334;2023-07-31T11:14:30;21.30;99.90
10386;DHT22;34307;51.332;12.334;2023-07-31T11:17:06;21.20;99.90
10386;DHT22;34307;51.332;12.334;2023-07-31T11:19:38;21.40;96.20
10386;DHT22;34307;51.332;12.334;2023-07-31T11:22:07;21.50;94.30
10386;DHT22;34307;51.332;12.334;2023-07-31T11:24:36;21.80;94.70
10386;DHT22;34307;51.332;12.334;2023-07-31T11:27:07;22.00;90.30
10386;DHT22;34307;51.332;12.334;2023-07-31T11:29:37;21.60;91.50
10386;DHT22;34307;51.332;12.334;2023-07-31T11:32:06;22.00;90.10
10386;DHT22;34307;51.332;12.334;2023-07-31T11:34:52;22.10;81.50
10386;DHT22;34307;51.332;12.334;2023-07-31T11:37:22;22.00;85.10
10386;DHT22;34307;51.332;12.334;2023-07-31T11:40:00;22.10;82.80
10386;DHT22;34307;51.332;12.334;2023-07-31T11:42:28;22.00;88.00
10386;DHT22;34307;51.332;12.334;2023-07-31T11:44:57;22.10;91.40
10386;DHT22;34307;51.332;12.334;2023-07-31T11:47:26;22.10;87.40
10386;DHT22;34307;51.332;12.334;2023-07-31T11:49:55;22.20;83.60
10386;DHT22;34307;51.332;12.334;2023-07-31T11:52:25;22.10;84.70
10386;DHT22;34307;51.332;12.334;2023-07-31T11:54:55;21.80;87.60
10386;DHT22;34307;51.332;12.334;2023-07-31T11:57:25;21.60;86.80
10386;DHT22;34307;51.332;12.334;2023-07-31T11:59:56;21.60;90.30
10386;DHT22;34307;51.332;12.334;2023-07-31T12:02:25;21.50;88.30
10386;DHT22;34307;51.332;12.334;2023-07-31T12:04:53;21.50;92.30
10386;DHT22;34307;51.332;12.334;2023-07-31T12:07:21;21.50;88.10
10386;DHT22;34307;51.332;12.334;2023-07-31T12:09:55;21.30;87.80
10386;DHT22;34307;51.332;12.334;2023-07-31T12:12:24;21.30;86.30
10386;DHT22;34307;51.332;12.334;2023-07-31T12:18:35;21.60;79.70
10386;DHT22;34307;51.332;12.334;2023-07-31T12:21:09;21.60;81.20
10386;DHT22;34307;51.332;12.334;2023-07-31T12:23:44;21.60;76.20
10386;DHT22;34307;51.332;12.334;2023-07-31T12:26:17;21.80;77.50
10386;DHT22;34307;51.332;12.334;2023-07-31T12:28:45;22.20;75.30
10386;DHT22;34307;51.332;12.334;2023-07-31T12:31:15;22.00;72.20
10386;DHT22;34307;51.332;12.334;2023-07-31T12:33:44;22.10;73.10
10386;DHT22;34307;51.332;12.334;2023-07-31T12:36:15;22.20;75.20
10386;DHT22;34307;51.332;12.334;2023-07-31T12:38:43;22.30;76.00
10386;DHT22;34307;51.332;12.334;2023-07-31T12:41:12;22.30;72.80
10386;DHT22;34307;51.332;12.334;2023-07-31T12:43:44;22.30;71.60
10386;DHT22;34307;51.332;12.334;2023-07-31T12:46:13;22.10;74.10
10386;DHT22;34307;51.332;12.334;2023-07-31T12:48:41;22.00;75.20
10386;DHT22;34307;51.332;12.334;2023-07-31T12:51:09;22.20;75.90
10386;DHT22;34307;51.332;12.334;2023-07-31T12:53:39;22.50;75.40
10386;DHT22;34307;51.332;12.334;2023-07-31T12:56:08;22.50;75.60
10386;DHT22;34307;51.332;12.334;2023-07-31T12:58:37;22.80;74.10
10386;DHT22;34307;51.332;12.334;2023-07-31T13:01:06;23.00;72.10
10386;DHT22;34307;51.332;12.334;2023-07-31T13:03:34;23.60;68.80
10386;DHT22;34307;51.332;12.334;2023-07-31T13:06:03;23.90;65.10
10386;DHT22;34307;51.332;12.334;2023-07-31T13:08:32;23.80;58.60
10386;DHT22;34307;51.332;12.334;2023-07-31T13:11:00;23.40;62.90
10386;DHT22;34307;51.332;12.334;2023-07-31T13:13:31;24.10;61.70
10386;DHT22;34307;51.332;12.334;2023-07-31T13:15:59;24.40;58.70
10386;DHT22;34307;51.332;12.334;2023-07-31T13:18:29;24.40;56.90
10386;DHT22;34307;51.332;12.334;2023-07-31T13:20:57;23.90;54.20
10386;DHT22;34307;51.332;12.334;2023-07-31T13:23:25;23.70;54.10
10386;DHT22;34307;51.332;12.334;2023-07-31T13:25:56;23.90;53.60
10386;DHT22;34307;51.332;12.334;2023-07-31T13:28:24;24.00;50.30
10386;DHT22;34307;51.332;12.334;2023-07-31T13:30:54;23.80;50.10
10386;DHT22;34307;51.332;12.334;2023-07-31T13:33:22;24.10;49.00
10386;DHT22;34307;51.332;12.334;2023-07-31T13:36:05;24.60;46.70
10386;DHT22;34307;51.332;12.334;2023-07-31T13:38:34;24.50;45.10
10386;DHT22;34307;51.332;12.334;2023-07-31T13:41:02;24.10;46.60
10386;DHT22;34307;51.332;12.334;2023-07-31T13:43:33;24.00;47.90
10386;DHT22;34307;51.332;12.334;2023-07-31T13:46:01;24.00;47.40
10386;DHT22;34307;51.332;12.334;2023-07-31T13:48:35;23.70;48.10
10386;DHT22;34307;51.332;12.334;2023-07-31T13:51:05;23.10;49.60
10386;DHT22;34307;51.332;12.334;2023-07-31T13:53:33;22.90;50.50
10386;DHT22;34307;51.332;12.334;2023-07-31T13:56:01;22.80;51.20
10386;DHT22;34307;51.332;12.334;2023-07-31T13:58:30;23.10;51.80
10386;DHT22;34307;51.332;12.334;2023-07-31T14:00:57;23.00;51.70
10386;DHT22;34307;51.332;12.334;2023-07-31T14:03:26;22.70;52.50
10386;DHT22;34307;51.332;12.334;2023-07-31T14:05:55;22.50;53.80
10386;DHT22;34307;51.332;12.334;2023-07-31T14:08:24;22.40;55.90
10386;DHT22;34307;51.332;12.334;2023-07-31T14:10:55;22.20;57.50
10386;DHT22;34307;51.332;12.334;2023-07-31T14:13:25;22.00;59.60
10386;DHT22;34307;51.332;12.334;2023-07-31T14:15:55;22.00;62.50
10386;DHT22;34307;51.332;12.334;2023-07-31T14:18:24;22.00;62.50
10386;DHT22;34307;51.332;12.334;2023-07-31T14:20:52;21.90;63.20
10386;DHT22;34307;51.332;12.334;2023-07-31T14:23:20;21.70;65.70
10386;DHT22;34307;51.332;12.334;2023-07-31T14:25:51;21.80;67.40
10386;DHT22;34307;51.332;12.334;2023-07-31T14:28:21;21.80;64.40
10386;DHT22;34307;51.332;12.334;2023-07-31T14:30:51;21.80;64.90
10386;DHT22;34307;51.332;12.334;2023-07-31T14:33:23;21.90;64.00
10386;DHT22;34307;51.332;12.334;2023-07-31T14:35:51;22.00;62.00
10386;DHT22;34307;51.332;12.334;2023-07-31T14:38:19;22.00;61.40
10386;DHT22;34307;51.332;12.334;2023-07-31T14:40:48;22.60;59.90
10386;DHT22;34307;51.332;12.334;2023-07-31T14:43:19;22.50;56.30
10386;DHT22;34307;51.332;12.334;2023-07-31T14:45:46;22.30;54.90
10386;DHT22;34307;51.332;12.334;2023-07-31T14:48:18;22.10;55.80
10386;DHT22;34307;51.332;12.334;2023-07-31T14:50:47;21.90;55.90
10386;DHT22;34307;51.332;12.334;2023-07-31T14:53:15;21.80;56.30
10386;DHT22;34307;51.332;12.334;2023-07-31T14:55:43;21.80;57.10
10386;DHT22;34307;51.332;12.334;2023-07-31T14:58:11;21.70;57.20
10386;DHT22;34307;51.332;12.334;2023-07-31T15:00:41;21.70;57.50
10386;DHT22;34307;51.332;12.334;2023-07-31T15:03:11;21.70;58.30
10386;DHT22;34307;51.332;12.334;2023-07-31T15:05:40;21.70;57.60
10386;DHT22;34307;51.332;12.334;2023-07-31T15:08:08;21.70;57.20
10386;DHT22;34307;51.332;12.334;2023-07-31T15:10:38;21.60;58.10
10386;DHT22;34307;51.332;12.334;2023-07-31T15:13:06;21.80;57.10
10386;DHT22;34307;51.332;12.334;2023-07-31T15:15:34;21.90;56.70
10386;DHT22;34307;51.332;12.334;2023-07-31T15:18:06;21.90;56.60
10386;DHT22;34307;51.332;12.334;2023-07-31T15:20:36;22.00;56.50
10386;DHT22;34307;51.332;12.334;2023-07-31T15:23:05;22.00;55.80
10386;DHT22;34307;51.332;12.334;2023-07-31T15:25:33;21.90;57.20
10386;DHT22;34307;51.332;12.334;2023-07-31T15:28:05;21.80;57.50
10386;DHT22;34307;51.332;12.334;2023-07-31T15:30:36;21.70;58.00
10386;DHT22;34307;51.332;12.334;2023-07-31T15:33:06;21.60;58.30
10386;DHT22;34307;51.332;12.334;2023-07-31T15:35:34;21.50;58.90
10386;DHT22;34307;51.332;12.334;2023-07-31T15:38:04;21.60;59.20